createdAt,value
2019-05-10T00:00:57.124Z,773.26
2019-05-10T00:01:57.114Z,773.26
2019-05-10T00:02:57.149Z,773.23
2019-05-10T00:03:57.054Z,773.23
2019-05-10T00:04:57.037Z,773.21
2019-05-10T00:05:57.035Z,773.23
2019-05-10T00:06:57.022Z,773.20
2019-05-10T00:07:57.016Z,773.22
2019-05-10T00:08:57.067Z,773.24
2019-05-10T00:09:57.049Z,773.29
2019-05-10T00:10:56.981Z,773.32
2019-05-10T00:11:56.976Z,773.33
2019-05-10T00:12:56.987Z,773.31
2019-05-10T00:13:56.951Z,773.30
2019-05-10T00:14:56.960Z,773.30
2019-05-10T00:15:56.970Z,773.33
2019-05-10T00:16:56.960Z,773.34
2019-05-10T00:17:56.933Z,773.34
2019-05-10T00:18:56.900Z,773.37
2019-05-10T00:19:56.910Z,773.34
2019-05-10T00:20:56.863Z,773.33
2019-05-10T00:21:56.842Z,773.34
2019-05-10T00:22:56.841Z,773.31
2019-05-10T00:23:56.835Z,773.31
2019-05-10T00:25:04.040Z,773.29
2019-05-10T00:25:56.809Z,773.31
2019-05-10T00:26:56.826Z,773.35
2019-05-10T00:27:56.791Z,773.40
2019-05-10T00:28:57.630Z,773.36
2019-05-10T00:29:56.859Z,773.37
2019-05-10T00:30:56.784Z,773.34
2019-05-10T00:31:56.769Z,773.36
2019-05-10T00:32:56.756Z,773.39
2019-05-10T00:33:56.712Z,773.38
2019-05-10T00:34:56.733Z,773.38
2019-05-10T00:35:56.700Z,773.41
2019-05-10T00:36:56.742Z,773.34
2019-05-10T00:37:56.679Z,773.43
2019-05-10T00:38:56.695Z,773.43
2019-05-10T00:39:56.727Z,773.45
2019-05-10T00:40:56.640Z,773.44
2019-05-10T00:41:56.645Z,773.44
2019-05-10T00:42:56.636Z,773.46
2019-05-10T00:43:56.633Z,773.54
2019-05-10T00:44:56.672Z,773.51
2019-05-10T00:45:56.633Z,773.53
2019-05-10T00:46:56.600Z,773.57
2019-05-10T00:47:56.593Z,773.54
2019-05-10T00:48:56.593Z,773.51
2019-05-10T00:49:56.609Z,773.51
2019-05-10T00:50:56.577Z,773.54
2019-05-10T00:51:56.594Z,773.53
2019-05-10T00:52:56.518Z,773.54
2019-05-10T00:53:56.579Z,773.53
2019-05-10T00:54:56.517Z,773.57
2019-05-10T00:55:56.506Z,773.57
2019-05-10T00:56:56.481Z,773.55
2019-05-10T00:57:56.458Z,773.56
2019-05-10T00:58:56.460Z,773.54
2019-05-10T00:59:56.435Z,773.57
2019-05-10T01:00:56.489Z,773.59
2019-05-10T01:01:56.414Z,773.56
2019-05-10T01:04:05.619Z,773.73
2019-05-10T01:05:06.580Z,773.63
2019-05-10T01:06:06.613Z,773.60
2019-05-10T01:07:06.563Z,773.57
2019-05-10T01:08:06.549Z,773.57
2019-05-10T01:09:06.539Z,773.58
2019-05-10T01:10:06.520Z,773.58
2019-05-10T01:11:06.526Z,773.61
2019-05-10T01:12:06.507Z,773.65
2019-05-10T01:13:06.497Z,773.61
2019-05-10T01:14:06.510Z,773.60
2019-05-10T01:15:06.481Z,773.58
2019-05-10T01:16:06.492Z,773.62
2019-05-10T01:17:06.443Z,773.63
2019-05-10T01:18:06.446Z,773.62
2019-05-10T01:19:06.433Z,773.62
2019-05-10T01:20:06.428Z,773.63
2019-05-10T01:21:06.429Z,773.59
2019-05-10T01:22:06.401Z,773.63
2019-05-10T01:23:06.381Z,773.66
2019-05-10T01:24:06.390Z,773.67
2019-05-10T01:25:06.359Z,773.65
2019-05-10T01:26:06.377Z,773.66
2019-05-10T01:27:06.344Z,773.65
2019-05-10T01:28:06.437Z,773.70
2019-05-10T01:29:06.321Z,773.72
2019-05-10T01:30:06.303Z,773.73
2019-05-10T01:31:06.319Z,773.74
2019-05-10T01:32:06.305Z,773.73
2019-05-10T01:33:06.270Z,773.77
2019-05-10T01:34:06.264Z,773.77
2019-05-10T01:35:06.260Z,773.83
2019-05-10T01:36:06.255Z,773.85
2019-05-10T01:37:06.225Z,773.86
2019-05-10T01:38:06.217Z,773.84
2019-05-10T01:39:06.213Z,773.88
2019-05-10T01:40:06.200Z,773.91
2019-05-10T01:41:06.228Z,773.92
2019-05-10T01:42:06.180Z,774.03
2019-05-10T01:43:06.164Z,774.03
2019-05-10T01:44:06.146Z,774.04
2019-05-10T01:45:06.139Z,774.11
2019-05-10T01:46:06.135Z,774.09
2019-05-10T01:47:06.161Z,774.11
2019-05-10T01:48:06.114Z,774.10
2019-05-10T01:49:06.097Z,774.12
2019-05-10T01:50:06.085Z,774.15
2019-05-10T01:51:06.069Z,774.17
2019-05-10T01:52:06.089Z,774.21
2019-05-10T01:53:06.054Z,774.19
2019-05-10T01:54:06.040Z,774.21
2019-05-10T01:55:06.025Z,774.26
2019-05-10T01:56:06.023Z,774.26
2019-05-10T01:57:06.027Z,774.32
2019-05-10T01:58:06.008Z,774.38
2019-05-10T01:59:06.009Z,774.41
2019-05-10T02:00:05.992Z,774.43
2019-05-10T02:01:05.966Z,774.46
2019-05-10T02:02:05.976Z,774.49
2019-05-10T02:03:05.940Z,774.54
2019-05-10T02:04:05.945Z,774.59
2019-05-10T02:05:05.963Z,774.61
2019-05-10T02:06:05.917Z,774.64
2019-05-10T02:07:05.937Z,774.71
2019-05-10T02:08:05.907Z,774.73
2019-05-10T02:09:05.893Z,774.77
2019-05-10T02:10:05.886Z,774.77
2019-05-10T02:11:05.869Z,774.80
2019-05-10T02:12:05.893Z,774.85
2019-05-10T02:13:05.989Z,774.86
2019-05-10T02:14:05.834Z,774.94
2019-05-10T02:15:05.820Z,774.98
2019-05-10T02:16:05.798Z,775.04
2019-05-10T02:17:05.814Z,775.08
2019-05-10T02:18:05.773Z,775.08
2019-05-10T02:19:05.761Z,775.14
2019-05-10T02:20:05.751Z,775.16
2019-05-10T02:21:05.755Z,775.19
2019-05-10T02:22:05.743Z,775.22
2019-05-10T02:23:05.730Z,775.24
2019-05-10T02:24:05.716Z,775.26
2019-05-10T02:25:05.711Z,775.28
2019-05-10T02:26:09.390Z,775.30
2019-05-10T02:27:05.701Z,775.33
2019-05-10T02:28:05.673Z,775.35
2019-05-10T02:29:05.662Z,775.38
2019-05-10T02:30:05.656Z,775.45
2019-05-10T02:31:05.634Z,775.51
2019-05-10T02:32:05.646Z,775.57
2019-05-10T02:33:05.620Z,775.57
2019-05-10T02:34:05.603Z,775.59
2019-05-10T02:35:05.604Z,775.62
2019-05-10T02:36:05.582Z,775.65
2019-05-10T02:37:05.626Z,775.65
2019-05-10T02:38:05.565Z,775.66
2019-05-10T02:39:05.545Z,775.70
2019-05-10T02:40:05.540Z,775.77
2019-05-10T02:41:05.530Z,775.76
2019-05-10T02:42:05.534Z,775.77
2019-05-10T02:43:05.512Z,775.70
2019-05-10T02:44:05.489Z,775.71
2019-05-10T02:45:05.486Z,775.74
2019-05-10T02:46:05.473Z,775.68
2019-05-10T02:47:05.481Z,775.68
2019-05-10T02:48:05.455Z,775.64
2019-05-10T02:49:05.430Z,775.67
2019-05-10T02:50:05.433Z,775.63
2019-05-10T02:51:05.423Z,775.63
2019-05-10T02:52:05.429Z,775.58
2019-05-10T02:53:05.416Z,775.59
2019-05-10T02:54:05.391Z,775.59
2019-05-10T02:55:05.382Z,775.56
2019-05-10T02:56:05.364Z,775.55
2019-05-10T02:57:05.374Z,775.48
2019-05-10T02:58:05.492Z,775.49
2019-05-10T02:59:05.333Z,775.43
2019-05-10T03:00:05.314Z,775.42
2019-05-10T03:01:05.315Z,775.39
2019-05-10T03:02:05.294Z,775.39
2019-05-10T03:03:05.306Z,775.38
2019-05-10T03:05:14.497Z,775.46
2019-05-10T03:06:15.449Z,775.34
2019-05-10T03:07:15.479Z,775.36
2019-05-10T03:08:15.438Z,775.31
2019-05-10T03:09:15.430Z,775.28
2019-05-10T03:10:15.412Z,775.29
2019-05-10T03:11:15.413Z,775.26
2019-05-10T03:12:15.418Z,775.26
2019-05-10T03:13:15.378Z,775.27
2019-05-10T03:14:15.367Z,775.26
2019-05-10T03:15:15.357Z,775.25
2019-05-10T03:16:15.362Z,775.25
2019-05-10T03:17:15.352Z,775.22
2019-05-10T03:18:15.355Z,775.20
2019-05-10T03:19:15.308Z,775.23
2019-05-10T03:20:15.326Z,775.25
2019-05-10T03:21:15.291Z,775.29
2019-05-10T03:22:15.296Z,775.28
2019-05-10T03:23:15.298Z,775.31
2019-05-10T03:24:15.261Z,775.34
2019-05-10T03:25:15.250Z,775.37
2019-05-10T03:26:15.249Z,775.32
2019-05-10T03:27:15.222Z,775.31
2019-05-10T03:28:15.245Z,775.38
2019-05-10T03:29:15.209Z,775.34
2019-05-10T03:30:15.203Z,775.36
2019-05-10T03:31:15.225Z,775.37
2019-05-10T03:32:15.175Z,775.39
2019-05-10T03:33:15.213Z,775.40
2019-05-10T03:34:15.149Z,775.40
2019-05-10T03:35:15.142Z,775.41
2019-05-10T03:36:15.157Z,775.44
2019-05-10T03:37:15.125Z,775.45
2019-05-10T03:38:15.122Z,775.41
2019-05-10T03:39:15.099Z,775.45
2019-05-10T03:40:15.092Z,775.47
2019-05-10T03:41:15.071Z,775.46
2019-05-10T03:42:15.088Z,775.47
2019-05-10T03:43:15.054Z,775.46
2019-05-10T03:44:15.064Z,775.46
2019-05-10T03:45:15.029Z,775.45
2019-05-10T03:46:15.012Z,775.46
2019-05-10T03:47:15.007Z,775.46
2019-05-10T03:48:14.996Z,775.47
2019-05-10T03:49:15.017Z,775.41
2019-05-10T03:50:14.973Z,775.39
2019-05-10T03:51:14.969Z,775.39
2019-05-10T03:52:14.957Z,775.44
2019-05-10T03:53:14.946Z,775.45
2019-05-10T03:54:14.955Z,775.42
2019-05-10T03:55:14.920Z,775.45
2019-05-10T03:56:14.912Z,775.46
2019-05-10T03:57:15.267Z,775.49
2019-05-10T03:58:14.895Z,775.56
2019-05-10T03:59:14.891Z,775.58
2019-05-10T04:00:14.928Z,775.58
2019-05-10T04:01:14.857Z,775.60
2019-05-10T04:02:14.835Z,775.58
2019-05-10T04:03:14.842Z,775.58
2019-05-10T04:04:14.850Z,775.62
2019-05-10T04:05:14.810Z,775.64
2019-05-10T04:06:14.799Z,775.65
2019-05-10T04:07:14.827Z,775.71
2019-05-10T04:08:14.777Z,775.70
2019-05-10T04:09:14.776Z,775.72
2019-05-10T04:10:14.762Z,775.71
2019-05-10T04:11:14.752Z,775.69
2019-05-10T04:12:14.730Z,775.72
2019-05-10T04:13:14.725Z,775.73
2019-05-10T04:14:14.734Z,775.76
2019-05-10T04:15:14.703Z,775.79
2019-05-10T04:16:14.692Z,775.82
2019-05-10T04:17:14.679Z,775.82
2019-05-10T04:18:14.676Z,775.83
2019-05-10T04:19:14.678Z,775.82
2019-05-10T04:20:14.646Z,775.83
2019-05-10T04:21:14.640Z,775.83
2019-05-10T04:22:14.626Z,775.85
2019-05-10T04:23:14.630Z,775.78
2019-05-10T04:24:14.628Z,775.79
2019-05-10T04:25:14.605Z,775.78
2019-05-10T04:26:14.587Z,775.82
2019-05-10T04:27:30.723Z,775.80
2019-05-10T04:28:14.573Z,775.80
2019-05-10T04:29:14.569Z,775.77
2019-05-10T04:30:14.542Z,775.85
2019-05-10T04:31:14.577Z,775.86
2019-05-10T04:32:14.517Z,775.84
2019-05-10T04:33:14.510Z,775.79
2019-05-10T04:34:14.566Z,775.78
2019-05-10T04:35:14.528Z,775.82
2019-05-10T04:36:14.500Z,775.81
2019-05-10T04:37:14.461Z,775.82
2019-05-10T04:38:14.448Z,775.79
2019-05-10T04:39:14.438Z,775.72
2019-05-10T04:40:14.438Z,775.76
2019-05-10T04:41:14.454Z,775.79
2019-05-10T04:42:14.410Z,775.80
2019-05-10T04:43:14.430Z,775.81
2019-05-10T04:44:14.415Z,775.83
2019-05-10T04:45:14.400Z,775.82
2019-05-10T04:46:14.387Z,775.80
2019-05-10T04:47:14.350Z,775.72
2019-05-10T04:48:14.346Z,775.72
2019-05-10T04:49:14.331Z,775.69
2019-05-10T04:50:14.316Z,775.68
2019-05-10T04:51:14.336Z,775.68
2019-05-10T04:52:14.303Z,775.67
2019-05-10T04:53:14.297Z,775.65
2019-05-10T04:54:14.314Z,775.66
2019-05-10T04:55:14.272Z,775.71
2019-05-10T04:56:14.306Z,775.75
2019-05-10T04:57:14.237Z,775.79
2019-05-10T04:58:14.236Z,775.73
2019-05-10T04:59:14.220Z,775.75
2019-05-10T05:00:14.229Z,775.76
2019-05-10T05:01:14.227Z,775.76
2019-05-10T05:02:14.225Z,775.75
2019-05-10T05:03:14.171Z,775.75
2019-05-10T05:04:14.183Z,775.77
2019-05-10T05:06:23.372Z,775.90
2019-05-10T05:07:24.338Z,775.75
2019-05-10T05:08:24.325Z,775.74
2019-05-10T05:09:24.309Z,775.73
2019-05-10T05:10:24.295Z,775.81
2019-05-10T05:11:24.298Z,775.69
2019-05-10T05:12:24.291Z,775.70
2019-05-10T05:13:24.277Z,775.74
2019-05-10T05:14:24.262Z,775.68
2019-05-10T05:15:24.245Z,775.68
2019-05-10T05:16:24.261Z,775.64
2019-05-10T05:17:24.242Z,775.66
2019-05-10T05:18:24.214Z,775.65
2019-05-10T05:19:24.212Z,775.66
2019-05-10T05:20:24.191Z,775.62
2019-05-10T05:21:24.201Z,775.63
2019-05-10T05:22:24.188Z,775.60
2019-05-10T05:23:24.172Z,775.57
2019-05-10T05:24:24.533Z,775.66
2019-05-10T05:25:24.137Z,775.61
2019-05-10T05:26:24.124Z,775.56
2019-05-10T05:27:24.133Z,775.60
2019-05-10T05:28:24.696Z,775.60
2019-05-10T05:29:24.104Z,775.55
2019-05-10T05:30:24.078Z,775.57
2019-05-10T05:31:24.063Z,775.51
2019-05-10T05:32:24.072Z,775.49
2019-05-10T05:33:24.053Z,775.48
2019-05-10T05:34:24.046Z,775.50
2019-05-10T05:35:24.032Z,775.52
2019-05-10T05:36:24.009Z,775.56
2019-05-10T05:37:24.021Z,775.51
2019-05-10T05:38:24.000Z,775.51
2019-05-10T05:39:23.980Z,775.51
2019-05-10T05:40:23.979Z,775.47
2019-05-10T05:41:23.982Z,775.44
2019-05-10T05:42:27.885Z,775.42
2019-05-10T05:43:23.955Z,775.41
2019-05-10T05:44:26.100Z,775.47
2019-05-10T05:45:28.246Z,775.52
2019-05-10T05:46:23.898Z,775.49
2019-05-10T05:47:23.921Z,775.47
2019-05-10T05:48:32.412Z,775.42
2019-05-10T05:49:23.880Z,775.49
2019-05-10T05:50:23.872Z,775.41
2019-05-10T05:51:23.875Z,775.46
2019-05-10T05:52:23.875Z,775.45
2019-05-10T05:53:23.900Z,775.44
2019-05-10T05:54:30.787Z,775.45
2019-05-10T05:55:24.167Z,775.46
2019-05-10T05:56:23.802Z,775.48
2019-05-10T05:57:27.628Z,775.48
2019-05-10T05:58:27.208Z,775.50
2019-05-10T05:59:26.156Z,775.45
2019-05-10T06:00:23.752Z,775.46
2019-05-10T06:01:28.896Z,775.46
2019-05-10T06:02:23.735Z,775.50
2019-05-10T06:03:27.461Z,775.54
2019-05-10T06:04:23.860Z,775.56
2019-05-10T06:05:33.979Z,775.56
2019-05-10T06:06:23.770Z,775.53
2019-05-10T06:07:23.692Z,775.54
2019-05-10T06:08:25.125Z,775.48
2019-05-10T06:09:23.660Z,775.47
2019-05-10T06:10:23.652Z,775.50
2019-05-10T06:11:23.628Z,775.61
2019-05-10T06:12:23.640Z,775.58
2019-05-10T06:13:30.461Z,775.63
2019-05-10T06:14:23.602Z,775.60
2019-05-10T06:15:28.935Z,775.66
2019-05-10T06:16:23.582Z,775.68
2019-05-10T06:17:28.876Z,775.73
2019-05-10T06:18:23.572Z,775.75
2019-05-10T06:19:29.332Z,775.78
2019-05-10T06:20:23.540Z,775.78
2019-05-10T06:21:26.418Z,775.82
2019-05-10T06:22:23.531Z,775.79
2019-05-10T06:23:23.549Z,775.85
2019-05-10T06:24:23.513Z,775.85
2019-05-10T06:25:37.902Z,775.89
2019-05-10T06:26:28.425Z,775.89
2019-05-10T06:27:23.641Z,775.89
2019-05-10T06:28:28.668Z,775.90
2019-05-10T06:29:24.164Z,775.84
2019-05-10T06:30:23.629Z,775.81
2019-05-10T06:31:23.418Z,775.85
2019-05-10T06:32:23.400Z,775.83
2019-05-10T06:33:24.442Z,775.82
2019-05-10T06:34:23.400Z,775.76
2019-05-10T06:35:23.399Z,775.83
2019-05-10T06:36:23.362Z,775.75
2019-05-10T06:37:23.352Z,775.67
2019-05-10T06:38:23.345Z,775.63
2019-05-10T06:39:23.333Z,775.63
2019-05-10T06:40:33.480Z,775.82
2019-05-10T06:41:23.309Z,775.76
2019-05-10T06:42:23.285Z,775.72
2019-05-10T06:43:23.288Z,775.82
2019-05-10T06:44:24.905Z,775.76
2019-05-10T06:45:23.254Z,775.69
2019-05-10T06:46:23.703Z,775.80
2019-05-10T06:47:23.312Z,775.82
2019-05-10T06:48:27.504Z,775.73
2019-05-10T06:49:24.140Z,775.83
2019-05-10T06:50:29.975Z,775.77
2019-05-10T06:51:23.191Z,775.77
2019-05-10T06:52:27.670Z,775.68
2019-05-10T06:53:23.562Z,775.71
2019-05-10T06:54:23.200Z,775.60
2019-05-10T06:55:23.138Z,775.60
2019-05-10T06:56:23.132Z,775.58
2019-05-10T06:57:23.125Z,775.60
2019-05-10T06:58:23.113Z,775.56
2019-05-10T06:59:24.825Z,775.59
2019-05-10T07:00:23.120Z,775.49
2019-05-10T07:01:23.089Z,775.56
2019-05-10T07:02:26.530Z,775.51
2019-05-10T07:03:23.333Z,775.49
2019-05-10T07:04:23.084Z,775.51
2019-05-10T07:05:23.042Z,775.40
2019-05-10T07:07:43.674Z,775.58
2019-05-10T07:08:43.817Z,775.51
2019-05-10T07:10:00.570Z,775.52
2019-05-10T07:10:34.369Z,775.50
2019-05-10T07:11:34.336Z,775.54
2019-05-10T07:12:34.331Z,775.58
2019-05-10T07:13:34.289Z,775.58
2019-05-10T07:14:34.348Z,775.53
2019-05-10T07:15:35.624Z,775.56
2019-05-10T07:16:34.260Z,775.58
2019-05-10T07:17:40.727Z,775.61
2019-05-10T07:18:34.246Z,775.63
2019-05-10T07:19:34.846Z,775.66
2019-05-10T07:20:34.246Z,775.67
2019-05-10T07:21:39.031Z,775.61
2019-05-10T07:22:34.189Z,775.61
2019-05-10T07:23:39.184Z,775.61
2019-05-10T07:24:34.185Z,775.68
2019-05-10T07:25:37.633Z,775.70
2019-05-10T07:26:34.172Z,775.65
2019-05-10T07:27:36.609Z,775.61
2019-05-10T07:28:34.127Z,775.62
2019-05-10T07:29:41.763Z,775.54
2019-05-10T07:30:34.135Z,775.49
2019-05-10T07:31:34.099Z,775.54
2019-05-10T07:32:34.106Z,775.48
2019-05-10T07:33:37.201Z,775.45
2019-05-10T07:34:34.061Z,775.42
2019-05-10T07:35:36.878Z,775.36
2019-05-10T07:36:34.074Z,775.37
2019-05-10T07:37:34.963Z,775.36
2019-05-10T07:38:34.058Z,775.45
2019-05-10T07:39:34.093Z,775.39
2019-05-10T07:40:34.025Z,775.35
2019-05-10T07:41:34.042Z,775.34
2019-05-10T07:42:34.148Z,775.40
2019-05-10T07:43:33.959Z,775.36
2019-05-10T07:44:34.007Z,775.24
2019-05-10T07:45:34.028Z,775.23
2019-05-10T07:46:33.988Z,775.20
2019-05-10T07:47:34.020Z,775.28
2019-05-10T07:48:33.940Z,775.21
2019-05-10T07:49:33.895Z,775.13
2019-05-10T07:50:33.922Z,775.19
2019-05-10T07:51:33.881Z,775.21
2019-05-10T07:52:36.476Z,775.38
2019-05-10T07:53:33.856Z,775.39
2019-05-10T07:54:37.429Z,775.32
2019-05-10T07:55:34.008Z,775.38
2019-05-10T07:56:38.869Z,775.39
2019-05-10T07:57:33.965Z,775.37
2019-05-10T07:58:38.257Z,775.30
2019-05-10T07:59:49.594Z,775.26
2019-05-10T08:00:38.169Z,775.24
2019-05-10T08:01:34.880Z,775.31
2019-05-10T08:02:35.497Z,775.37
2019-05-10T08:03:35.525Z,775.30
2019-05-10T08:04:35.575Z,775.45
2019-05-10T08:05:33.814Z,775.50
2019-05-10T08:06:43.600Z,775.40
2019-05-10T08:07:33.875Z,775.48
2019-05-10T08:08:33.815Z,775.52
2019-05-10T08:09:37.192Z,775.42
2019-05-10T08:10:33.907Z,775.39
2019-05-10T08:11:33.703Z,775.20
2019-05-10T08:12:35.271Z,775.19
2019-05-10T08:13:33.715Z,775.06
2019-05-10T08:14:34.472Z,774.93
2019-05-10T08:15:34.970Z,774.97
2019-05-10T08:16:33.639Z,775.06
2019-05-10T08:17:35.349Z,775.07
2019-05-10T08:18:33.600Z,775.09
2019-05-10T08:19:37.706Z,775.03
2019-05-10T08:20:46.553Z,775.11
2019-05-10T08:21:33.581Z,775.14
2019-05-10T08:22:41.262Z,775.11
2019-05-10T08:23:33.526Z,775.10
2019-05-10T08:24:35.437Z,775.06
2019-05-10T08:25:39.562Z,774.98
2019-05-10T08:26:33.534Z,775.07
2019-05-10T08:27:33.515Z,775.15
2019-05-10T08:28:37.356Z,775.12
2019-05-10T08:29:33.509Z,775.20
2019-05-10T08:30:33.457Z,775.26
2019-05-10T08:31:40.336Z,775.34
2019-05-10T08:32:34.973Z,775.33
2019-05-10T08:33:33.413Z,775.25
2019-05-10T08:34:35.685Z,775.20
2019-05-10T08:35:35.872Z,775.24
2019-05-10T08:36:37.351Z,775.26
2019-05-10T08:37:37.605Z,775.32
2019-05-10T08:38:33.446Z,775.39
2019-05-10T08:39:44.183Z,775.34
2019-05-10T08:40:37.399Z,775.29
2019-05-10T08:41:33.371Z,775.27
2019-05-10T08:42:44.410Z,775.43
2019-05-10T08:43:38.798Z,775.65
2019-05-10T08:44:33.967Z,775.82
2019-05-10T08:45:33.299Z,775.73
2019-05-10T08:46:40.943Z,775.70
2019-05-10T08:47:33.260Z,775.72
2019-05-10T08:48:37.972Z,775.71
2019-05-10T08:49:44.314Z,775.89
2019-05-10T08:50:48.781Z,775.86
2019-05-10T08:51:34.532Z,775.84
2019-05-10T08:52:34.048Z,775.77
2019-05-10T08:53:33.194Z,775.68
2019-05-10T08:54:33.194Z,775.68
2019-05-10T08:55:33.168Z,775.84
2019-05-10T08:56:33.516Z,776.00
2019-05-10T08:57:34.798Z,776.06
2019-05-10T08:58:37.072Z,776.16
2019-05-10T08:59:33.970Z,776.31
2019-05-10T09:00:45.014Z,776.33
2019-05-10T09:01:44.459Z,776.29
2019-05-10T09:02:33.139Z,776.25
2019-05-10T09:03:33.109Z,776.21
2019-05-10T09:04:43.731Z,776.15
2019-05-10T09:05:34.021Z,776.10
2019-05-10T09:06:33.049Z,775.92
2019-05-10T09:08:44.035Z,775.86
2019-05-10T09:09:49.721Z,775.79
2019-05-10T09:10:44.680Z,775.72
2019-05-10T09:11:44.686Z,775.77
2019-05-10T09:12:51.076Z,775.64
2019-05-10T09:13:46.223Z,775.50
2019-05-10T09:14:44.623Z,775.38
2019-05-10T09:15:51.689Z,775.27
2019-05-10T09:16:56.261Z,775.31
2019-05-10T09:17:44.629Z,775.09
2019-05-10T09:18:50.305Z,774.82
2019-05-10T09:19:44.571Z,774.72
2019-05-10T09:20:44.562Z,774.76
2019-05-10T09:21:50.025Z,774.80
2019-05-10T09:22:44.547Z,774.82
2019-05-10T09:23:44.611Z,774.90
2019-05-10T09:24:48.465Z,775.01
2019-05-10T09:25:44.591Z,774.99
2019-05-10T09:26:47.045Z,774.67
2019-05-10T09:27:44.512Z,774.50
2019-05-10T09:28:47.476Z,774.25
2019-05-10T09:29:44.456Z,774.06
2019-05-10T09:30:56.883Z,773.60
2019-05-10T09:31:48.896Z,773.27
2019-05-10T09:32:45.365Z,773.12
2019-05-10T09:33:49.576Z,773.07
2019-05-10T09:34:44.404Z,773.26
2019-05-10T09:35:51.373Z,773.58
2019-05-10T09:36:46.983Z,773.78
2019-05-10T09:37:47.796Z,774.12
2019-05-10T09:38:46.329Z,774.12
2019-05-10T09:39:44.467Z,774.28
2019-05-10T09:40:51.383Z,774.33
2019-05-10T09:41:44.713Z,774.39
2019-05-10T09:42:44.330Z,774.50
2019-05-10T09:43:49.179Z,774.69
2019-05-10T09:44:45.921Z,774.83
2019-05-10T09:45:44.274Z,774.97
2019-05-10T09:46:44.292Z,775.09
2019-05-10T09:47:44.299Z,775.02
2019-05-10T09:48:45.049Z,774.85
2019-05-10T09:49:52.492Z,774.96
2019-05-10T09:50:47.111Z,774.81
2019-05-10T09:51:44.201Z,774.84
2019-05-10T09:52:44.219Z,774.89
2019-05-10T09:53:44.512Z,774.89
2019-05-10T09:54:44.180Z,774.76
2019-05-10T09:55:45.701Z,774.83
2019-05-10T09:56:45.827Z,774.62
2019-05-10T09:57:44.165Z,774.52
2019-05-10T09:58:44.497Z,774.42
2019-05-10T09:59:44.123Z,774.24
2019-05-10T10:00:44.105Z,774.26
2019-05-10T10:01:44.094Z,774.50
2019-05-10T10:02:47.679Z,774.34
2019-05-10T10:03:44.996Z,774.40
2019-05-10T10:04:44.055Z,774.49
2019-05-10T10:05:44.055Z,774.53
2019-05-10T10:06:48.070Z,774.56
2019-05-10T10:07:44.032Z,774.66
2019-05-10T10:08:51.263Z,774.50
2019-05-10T10:09:45.095Z,774.46
2019-05-10T10:10:44.018Z,774.43
2019-05-10T10:11:48.564Z,774.39
2019-05-10T10:12:43.986Z,774.58
2019-05-10T10:13:48.907Z,774.55
2019-05-10T10:14:43.951Z,774.52
2019-05-10T10:15:46.893Z,774.51
2019-05-10T10:16:49.375Z,774.60
2019-05-10T10:17:43.910Z,774.66
2019-05-10T10:18:43.942Z,774.72
2019-05-10T10:19:43.921Z,774.80
2019-05-10T10:20:45.439Z,774.95
2019-05-10T10:21:43.875Z,775.01
2019-05-10T10:22:52.673Z,774.83
2019-05-10T10:23:43.894Z,774.98
2019-05-10T10:24:48.975Z,774.78
2019-05-10T10:25:43.838Z,774.71
2019-05-10T10:26:43.826Z,774.82
2019-05-10T10:27:43.835Z,774.77
2019-05-10T10:28:44.552Z,774.82
2019-05-10T10:29:43.786Z,774.82
2019-05-10T10:30:43.837Z,774.96
2019-05-10T10:31:51.388Z,774.75
2019-05-10T10:32:44.623Z,774.60
2019-05-10T10:33:54.920Z,774.51
2019-05-10T10:34:43.723Z,774.39
2019-05-10T10:35:43.740Z,774.61
2019-05-10T10:36:44.187Z,774.79
2019-05-10T10:37:43.702Z,774.76
2019-05-10T10:38:45.642Z,774.98
2019-05-10T10:39:43.688Z,775.25
2019-05-10T10:40:44.915Z,775.38
2019-05-10T10:41:43.852Z,775.48
2019-05-10T10:42:43.642Z,775.56
2019-05-10T10:43:43.627Z,775.13
2019-05-10T10:44:43.642Z,774.66
2019-05-10T10:45:43.606Z,774.32
2019-05-10T10:46:43.630Z,774.23
2019-05-10T10:47:43.601Z,774.34
2019-05-10T10:48:48.912Z,774.41
2019-05-10T10:49:43.579Z,774.39
2019-05-10T10:50:44.155Z,774.31
2019-05-10T10:51:43.543Z,774.50
2019-05-10T10:52:43.523Z,774.65
2019-05-10T10:53:43.521Z,774.83
2019-05-10T10:54:43.584Z,774.85
2019-05-10T10:55:48.417Z,774.75
2019-05-10T10:56:43.487Z,774.94
2019-05-10T10:57:43.484Z,774.96
2019-05-10T10:58:43.463Z,774.89
2019-05-10T10:59:43.488Z,774.72
2019-05-10T11:00:43.451Z,774.70
2019-05-10T11:01:49.938Z,774.63
2019-05-10T11:02:46.857Z,774.59
2019-05-10T11:03:43.406Z,774.43
2019-05-10T11:04:46.600Z,774.42
2019-05-10T11:05:43.381Z,774.78
2019-05-10T11:06:43.379Z,774.86
2019-05-10T11:07:47.280Z,774.71
2019-05-10T11:09:53.890Z,774.27
2019-05-10T11:10:53.563Z,773.78
2019-05-10T11:11:53.550Z,773.65
2019-05-10T11:12:56.253Z,773.53
2019-05-10T11:14:02.156Z,773.43
2019-05-10T11:14:53.739Z,773.36
2019-05-10T11:15:53.525Z,773.21
2019-05-10T11:16:57.104Z,773.07
2019-05-10T11:17:53.488Z,773.35
2019-05-10T11:18:53.464Z,774.00
2019-05-10T11:19:53.479Z,774.31
2019-05-10T11:20:54.167Z,774.29
2019-05-10T11:21:53.427Z,774.57
2019-05-10T11:22:53.593Z,774.45
2019-05-10T11:23:53.433Z,774.29
2019-05-10T11:25:03.097Z,774.51
2019-05-10T11:25:56.418Z,774.60
2019-05-10T11:26:53.421Z,774.47
2019-05-10T11:27:58.366Z,774.30
2019-05-10T11:28:53.351Z,774.09
2019-05-10T11:29:55.213Z,773.70
2019-05-10T11:30:53.346Z,773.42
2019-05-10T11:32:11.051Z,773.51
2019-05-10T11:32:53.314Z,773.66
2019-05-10T11:33:58.437Z,773.66
2019-05-10T11:34:53.311Z,773.79
2019-05-10T11:35:57.574Z,773.71
2019-05-10T11:36:53.276Z,774.12
2019-05-10T11:37:53.281Z,774.28
2019-05-10T11:38:58.560Z,774.09
2019-05-10T11:39:53.263Z,773.93
2019-05-10T11:40:53.232Z,773.98
2019-05-10T11:42:02.161Z,773.79
2019-05-10T11:42:53.222Z,773.57
2019-05-10T11:43:57.987Z,773.37
2019-05-10T11:44:54.675Z,773.21
2019-05-10T11:45:53.176Z,773.63
2019-05-10T11:46:53.156Z,773.59
2019-05-10T11:47:58.747Z,773.68
2019-05-10T11:48:53.141Z,773.58
2019-05-10T11:49:53.161Z,773.33
2019-05-10T11:50:53.121Z,773.06
2019-05-10T11:51:54.752Z,772.74
2019-05-10T11:52:53.102Z,772.84
2019-05-10T11:53:55.585Z,773.13
2019-05-10T11:54:53.091Z,773.26
2019-05-10T11:55:53.064Z,773.36
2019-05-10T11:56:58.456Z,773.63
2019-05-10T11:58:01.964Z,774.08
2019-05-10T11:58:55.554Z,774.09
2019-05-10T11:59:53.030Z,773.91
2019-05-10T12:00:59.435Z,773.92
2019-05-10T12:01:57.955Z,774.21
2019-05-10T12:03:07.503Z,774.37
2019-05-10T12:03:52.975Z,774.32
2019-05-10T12:04:53.062Z,774.25
2019-05-10T12:06:04.564Z,774.13
2019-05-10T12:06:52.942Z,774.19
2019-05-10T12:07:54.830Z,774.00
2019-05-10T12:10:03.101Z,773.51
2019-05-10T12:11:03.929Z,773.39
2019-05-10T12:11:56.445Z,773.25
2019-05-10T12:13:08.243Z,773.10
2019-05-10T12:13:57.371Z,772.97
2019-05-10T12:14:54.077Z,772.95
2019-05-10T12:15:52.861Z,773.11
2019-05-10T12:16:54.542Z,773.26
2019-05-10T12:17:59.003Z,773.34
2019-05-10T12:19:19.531Z,773.65
2019-05-10T12:19:56.254Z,773.79
2019-05-10T12:21:03.865Z,773.80
2019-05-10T12:21:55.999Z,773.86
2019-05-10T12:22:52.757Z,773.91
2019-05-10T12:23:56.295Z,773.91
2019-05-10T12:25:16.973Z,773.85
2019-05-10T12:26:18.652Z,773.70
2019-05-10T12:26:50.470Z,773.72
2019-05-10T12:27:20.990Z,773.60
2019-05-10T12:27:52.769Z,773.75
2019-05-10T12:28:52.691Z,773.80
2019-05-10T12:29:59.571Z,773.69
2019-05-10T12:30:52.679Z,773.70
2019-05-10T12:31:56.907Z,773.62
2019-05-10T12:32:56.215Z,773.65
2019-05-10T12:33:52.640Z,773.74
2019-05-10T12:34:56.509Z,773.83
2019-05-10T12:35:52.637Z,773.70